Main page
METAR-TAF:

METAR-TAF

Airports :

Benguela Airport

Benguela, Angola

latitude: 12-36-30S, longitude: 13-24-10E, elevation: 36 m

METAR: missing

Time: 12:38 (11:38 UTC)

Forecast

The report was made 38 minutes ago, at 11:00 UTC
Forecast valid from 04 at 12 UTC to 04 at 24 UTC
Wind 5 kt from the North/Northwest
Visibility 10 km or more
Broken clouds at a height of 2500 ft

TAF: FNBG 041100Z 0412/0424 34005KT 9999 BKN025

Weather observations and forecasts of more than 4000 airports (METAR and TAF reports).

The available stations are represented by yellow and red dots on the map.

Hover mouse over dot to see the name of the station.

Then click to see weather observations and forecasts.

To change the map : click on the green buttons with a black cross to zoom in, on the green button with a dash to zoom out, or on the green arrows for adjacent maps.


METAR-TAF: